KCWC

Kickapoo Downtown Airport

Wichita Falls, Texas, USA
METAR KCWC 200655Z AUTO 16016KT 10SM CLR 20/17 A2975 RMK AO2 T02000173
Observed Flight Rules
Feb-20 @ 06:55 UTC (34 minutes ago) Visual Flight Rules
Wind Visibility Clouds
160° at 16 knots 10 miles
  • Clear skies
Temperatures Readings
Current 20°C / 68°F
Dewpoint 17°C / 63°F
Humidity 83%
Altimeter 29.75" Hg
Pressure 1007 hPa
Elevation 305
METAR KCWC 200655Z AUTO 16016KT 10SM CLR 20/17 A2975 RMK AO2 T02000173
Observed Flight Rules
Feb-20 @ 06:55 UTC
(34 minutes ago)
VFR
Wind Visibility
160° at 16 knots 10 miles
Clouds
  • Clear skies
Temperature Dewpoint
20°C / 68°F 17°C / 63°F
Humidity Altimeter Pressure
83% 29.75" Hg 1007 hPa